sensor_id;sensor_type;location;lat;lon;timestamp;P1;durP1;ratioP1;P2;durP2;ratioP2
75234;SDS011;63817;51.228;-1.472;2023-04-24T00:01:37;32.40;;;21.45;;
75234;SDS011;63817;51.228;-1.472;2023-04-24T00:04:04;33.88;;;21.30;;
75234;SDS011;63817;51.228;-1.472;2023-04-24T00:06:31;36.65;;;22.77;;
75234;SDS011;63817;51.228;-1.472;2023-04-24T00:09:00;40.17;;;23.60;;
75234;SDS011;63817;51.228;-1.472;2023-04-24T00:11:26;39.42;;;23.25;;
75234;SDS011;63817;51.228;-1.472;2023-04-24T00:13:52;48.47;;;24.13;;
75234;SDS011;63817;51.228;-1.472;2023-04-24T00:16:17;33.08;;;21.83;;
75234;SDS011;63817;51.228;-1.472;2023-04-24T00:18:43;36.63;;;22.35;;
75234;SDS011;63817;51.228;-1.472;2023-04-24T00:21:10;37.50;;;23.23;;
75234;SDS011;63817;51.228;-1.472;2023-04-24T00:23:35;37.88;;;23.20;;
75234;SDS011;63817;51.228;-1.472;2023-04-24T00:26:01;39.78;;;23.90;;
75234;SDS011;63817;51.228;-1.472;2023-04-24T00:28:27;41.78;;;26.38;;
75234;SDS011;63817;51.228;-1.472;2023-04-24T00:30:52;42.03;;;24.92;;
75234;SDS011;63817;51.228;-1.472;2023-04-24T00:33:17;38.90;;;25.00;;
75234;SDS011;63817;51.228;-1.472;2023-04-24T00:35:43;38.33;;;24.17;;
75234;SDS011;63817;51.228;-1.472;2023-04-24T00:38:08;37.17;;;23.40;;
75234;SDS011;63817;51.228;-1.472;2023-04-24T00:40:34;40.35;;;23.52;;
75234;SDS011;63817;51.228;-1.472;2023-04-24T00:42:59;41.47;;;25.88;;
75234;SDS011;63817;51.228;-1.472;2023-04-24T00:45:25;42.40;;;25.38;;
75234;SDS011;63817;51.228;-1.472;2023-04-24T00:47:51;42.25;;;25.02;;
75234;SDS011;63817;51.228;-1.472;2023-04-24T00:50:17;41.53;;;25.88;;
75234;SDS011;63817;51.228;-1.472;2023-04-24T00:52:43;43.58;;;27.38;;
75234;SDS011;63817;51.228;-1.472;2023-04-24T00:55:08;44.60;;;26.48;;
75234;SDS011;63817;51.228;-1.472;2023-04-24T00:57:34;42.88;;;25.58;;
75234;SDS011;63817;51.228;-1.472;2023-04-24T01:00:00;47.97;;;27.27;;
75234;SDS011;63817;51.228;-1.472;2023-04-24T01:02:25;42.85;;;26.05;;
75234;SDS011;63817;51.228;-1.472;2023-04-24T01:04:51;43.17;;;26.20;;
75234;SDS011;63817;51.228;-1.472;2023-04-24T01:07:18;48.05;;;26.48;;
75234;SDS011;63817;51.228;-1.472;2023-04-24T01:09:45;45.38;;;26.02;;
75234;SDS011;63817;51.228;-1.472;2023-04-24T01:12:14;44.95;;;26.02;;
75234;SDS011;63817;51.228;-1.472;2023-04-24T01:14:40;44.38;;;26.55;;
75234;SDS011;63817;51.228;-1.472;2023-04-24T01:17:05;43.20;;;26.63;;
75234;SDS011;63817;51.228;-1.472;2023-04-24T01:19:32;44.55;;;27.52;;
75234;SDS011;63817;51.228;-1.472;2023-04-24T01:21:58;51.40;;;28.40;;
75234;SDS011;63817;51.228;-1.472;2023-04-24T01:24:24;49.13;;;28.75;;
75234;SDS011;63817;51.228;-1.472;2023-04-24T01:26:50;49.55;;;28.60;;
75234;SDS011;63817;51.228;-1.472;2023-04-24T01:29:15;49.13;;;28.83;;
75234;SDS011;63817;51.228;-1.472;2023-04-24T01:31:41;57.00;;;30.48;;
75234;SDS011;63817;51.228;-1.472;2023-04-24T01:34:06;45.55;;;27.75;;
75234;SDS011;63817;51.228;-1.472;2023-04-24T01:36:33;48.85;;;27.95;;
75234;SDS011;63817;51.228;-1.472;2023-04-24T01:39:00;47.83;;;27.08;;
75234;SDS011;63817;51.228;-1.472;2023-04-24T01:41:25;53.05;;;27.95;;
75234;SDS011;63817;51.228;-1.472;2023-04-24T01:43:51;46.72;;;28.27;;
75234;SDS011;63817;51.228;-1.472;2023-04-24T01:46:17;44.03;;;26.55;;
75234;SDS011;63817;51.228;-1.472;2023-04-24T01:48:42;40.83;;;25.80;;
75234;SDS011;63817;51.228;-1.472;2023-04-24T01:51:10;46.25;;;27.42;;
75234;SDS011;63817;51.228;-1.472;2023-04-24T01:53:35;43.25;;;26.30;;
75234;SDS011;63817;51.228;-1.472;2023-04-24T01:56:01;48.38;;;27.50;;
75234;SDS011;63817;51.228;-1.472;2023-04-24T01:58:26;50.30;;;28.33;;
75234;SDS011;63817;51.228;-1.472;2023-04-24T02:00:52;46.92;;;26.58;;
75234;SDS011;63817;51.228;-1.472;2023-04-24T02:03:17;42.13;;;24.92;;
75234;SDS011;63817;51.228;-1.472;2023-04-24T02:05:46;48.67;;;28.52;;
75234;SDS011;63817;51.228;-1.472;2023-04-24T02:08:11;45.38;;;26.30;;
75234;SDS011;63817;51.228;-1.472;2023-04-24T02:10:36;45.70;;;27.65;;
75234;SDS011;63817;51.228;-1.472;2023-04-24T02:13:02;48.47;;;27.13;;
75234;SDS011;63817;51.228;-1.472;2023-04-24T02:15:29;43.90;;;26.77;;
75234;SDS011;63817;51.228;-1.472;2023-04-24T02:17:55;43.83;;;25.67;;
75234;SDS011;63817;51.228;-1.472;2023-04-24T02:20:20;43.83;;;25.58;;
75234;SDS011;63817;51.228;-1.472;2023-04-24T02:22:46;41.85;;;25.65;;
75234;SDS011;63817;51.228;-1.472;2023-04-24T02:25:11;45.47;;;25.83;;
75234;SDS011;63817;51.228;-1.472;2023-04-24T02:27:36;42.58;;;25.73;;
75234;SDS011;63817;51.228;-1.472;2023-04-24T02:30:02;45.17;;;25.77;;
75234;SDS011;63817;51.228;-1.472;2023-04-24T02:32:28;42.20;;;26.05;;
75234;SDS011;63817;51.228;-1.472;2023-04-24T02:34:53;42.78;;;25.60;;
75234;SDS011;63817;51.228;-1.472;2023-04-24T02:37:18;44.72;;;25.63;;
75234;SDS011;63817;51.228;-1.472;2023-04-24T02:39:44;42.30;;;25.00;;
75234;SDS011;63817;51.228;-1.472;2023-04-24T02:42:09;44.63;;;24.25;;
75234;SDS011;63817;51.228;-1.472;2023-04-24T02:44:35;44.63;;;25.83;;
75234;SDS011;63817;51.228;-1.472;2023-04-24T02:47:00;39.30;;;25.05;;
75234;SDS011;63817;51.228;-1.472;2023-04-24T02:49:26;37.85;;;23.52;;
75234;SDS011;63817;51.228;-1.472;2023-04-24T02:51:52;39.72;;;23.83;;
75234;SDS011;63817;51.228;-1.472;2023-04-24T02:54:17;37.80;;;23.27;;
75234;SDS011;63817;51.228;-1.472;2023-04-24T02:56:42;43.38;;;25.02;;
75234;SDS011;63817;51.228;-1.472;2023-04-24T02:59:08;45.65;;;23.30;;
75234;SDS011;63817;51.228;-1.472;2023-04-24T03:01:33;40.25;;;23.38;;
75234;SDS011;63817;51.228;-1.472;2023-04-24T03:03:58;38.90;;;22.98;;
75234;SDS011;63817;51.228;-1.472;2023-04-24T03:06:24;38.15;;;23.60;;
75234;SDS011;63817;51.228;-1.472;2023-04-24T03:08:49;38.03;;;22.08;;
75234;SDS011;63817;51.228;-1.472;2023-04-24T03:11:15;35.13;;;21.40;;
75234;SDS011;63817;51.228;-1.472;2023-04-24T03:13:40;35.30;;;21.63;;
75234;SDS011;63817;51.228;-1.472;2023-04-24T03:16:06;35.03;;;21.83;;
75234;SDS011;63817;51.228;-1.472;2023-04-24T03:18:31;32.05;;;20.85;;
75234;SDS011;63817;51.228;-1.472;2023-04-24T03:20:56;37.47;;;21.30;;
75234;SDS011;63817;51.228;-1.472;2023-04-24T03:23:22;37.88;;;22.33;;
75234;SDS011;63817;51.228;-1.472;2023-04-24T03:25:47;33.05;;;20.38;;
75234;SDS011;63817;51.228;-1.472;2023-04-24T03:28:13;33.88;;;20.67;;
75234;SDS011;63817;51.228;-1.472;2023-04-24T03:30:39;35.42;;;20.50;;
75234;SDS011;63817;51.228;-1.472;2023-04-24T03:33:04;31.33;;;19.33;;
75234;SDS011;63817;51.228;-1.472;2023-04-24T03:35:30;33.67;;;21.13;;
75234;SDS011;63817;51.228;-1.472;2023-04-24T03:37:55;34.08;;;20.08;;
75234;SDS011;63817;51.228;-1.472;2023-04-24T03:40:21;36.05;;;22.08;;
75234;SDS011;63817;51.228;-1.472;2023-04-24T03:42:46;38.55;;;21.10;;
75234;SDS011;63817;51.228;-1.472;2023-04-24T03:45:11;34.17;;;20.45;;
75234;SDS011;63817;51.228;-1.472;2023-04-24T03:47:37;31.77;;;19.35;;
75234;SDS011;63817;51.228;-1.472;2023-04-24T03:50:02;32.83;;;19.55;;
75234;SDS011;63817;51.228;-1.472;2023-04-24T03:52:28;34.13;;;21.17;;
75234;SDS011;63817;51.228;-1.472;2023-04-24T03:54:53;34.92;;;20.38;;
75234;SDS011;63817;51.228;-1.472;2023-04-24T03:57:20;32.83;;;19.75;;
75234;SDS011;63817;51.228;-1.472;2023-04-24T03:59:45;38.15;;;20.02;;
75234;SDS011;63817;51.228;-1.472;2023-04-24T04:02:11;39.10;;;20.85;;
75234;SDS011;63817;51.228;-1.472;2023-04-24T04:04:36;39.67;;;20.75;;
75234;SDS011;63817;51.228;-1.472;2023-04-24T04:07:02;31.67;;;18.63;;
75234;SDS011;63817;51.228;-1.472;2023-04-24T04:09:28;31.35;;;18.13;;
75234;SDS011;63817;51.228;-1.472;2023-04-24T04:11:53;29.70;;;18.95;;
75234;SDS011;63817;51.228;-1.472;2023-04-24T04:14:19;29.27;;;18.63;;
75234;SDS011;63817;51.228;-1.472;2023-04-24T04:16:44;28.52;;;17.55;;
75234;SDS011;63817;51.228;-1.472;2023-04-24T04:19:10;31.25;;;18.73;;
75234;SDS011;63817;51.228;-1.472;2023-04-24T04:21:35;33.60;;;18.05;;
75234;SDS011;63817;51.228;-1.472;2023-04-24T04:24:00;32.40;;;19.08;;
75234;SDS011;63817;51.228;-1.472;2023-04-24T04:26:26;31.27;;;18.30;;
75234;SDS011;63817;51.228;-1.472;2023-04-24T04:28:52;31.70;;;18.38;;
75234;SDS011;63817;51.228;-1.472;2023-04-24T04:31:19;32.75;;;18.77;;
75234;SDS011;63817;51.228;-1.472;2023-04-24T04:33:44;34.15;;;18.67;;
75234;SDS011;63817;51.228;-1.472;2023-04-24T04:36:10;32.50;;;19.45;;
75234;SDS011;63817;51.228;-1.472;2023-04-24T04:38:35;32.95;;;19.77;;
75234;SDS011;63817;51.228;-1.472;2023-04-24T04:41:02;31.55;;;18.10;;
75234;SDS011;63817;51.228;-1.472;2023-04-24T04:43:27;28.20;;;17.60;;
75234;SDS011;63817;51.228;-1.472;2023-04-24T04:45:53;28.45;;;17.40;;
75234;SDS011;63817;51.228;-1.472;2023-04-24T04:48:19;25.10;;;16.10;;
75234;SDS011;63817;51.228;-1.472;2023-04-24T04:50:45;28.05;;;15.88;;
75234;SDS011;63817;51.228;-1.472;2023-04-24T04:53:10;26.80;;;16.70;;
75234;SDS011;63817;51.228;-1.472;2023-04-24T04:55:36;33.78;;;18.90;;
75234;SDS011;63817;51.228;-1.472;2023-04-24T04:58:02;34.30;;;18.90;;
75234;SDS011;63817;51.228;-1.472;2023-04-24T05:00:27;29.92;;;18.42;;
75234;SDS011;63817;51.228;-1.472;2023-04-24T05:02:54;34.53;;;18.55;;
75234;SDS011;63817;51.228;-1.472;2023-04-24T05:05:19;31.60;;;18.83;;
75234;SDS011;63817;51.228;-1.472;2023-04-24T05:07:45;32.30;;;19.00;;
75234;SDS011;63817;51.228;-1.472;2023-04-24T05:10:10;32.35;;;19.00;;
75234;SDS011;63817;51.228;-1.472;2023-04-24T05:12:36;36.05;;;20.10;;
75234;SDS011;63817;51.228;-1.472;2023-04-24T05:15:01;31.45;;;18.20;;
75234;SDS011;63817;51.228;-1.472;2023-04-24T05:17:27;31.65;;;18.42;;
75234;SDS011;63817;51.228;-1.472;2023-04-24T05:19:53;37.22;;;20.52;;
75234;SDS011;63817;51.228;-1.472;2023-04-24T05:22:18;32.00;;;19.45;;
75234;SDS011;63817;51.228;-1.472;2023-04-24T05:24:45;31.67;;;18.35;;
75234;SDS011;63817;51.228;-1.472;2023-04-24T05:27:11;36.58;;;19.70;;
75234;SDS011;63817;51.228;-1.472;2023-04-24T05:29:37;35.70;;;19.52;;
75234;SDS011;63817;51.228;-1.472;2023-04-24T05:32:02;29.58;;;17.55;;
75234;SDS011;63817;51.228;-1.472;2023-04-24T05:34:28;28.58;;;17.67;;
75234;SDS011;63817;51.228;-1.472;2023-04-24T05:36:53;26.67;;;16.63;;
75234;SDS011;63817;51.228;-1.472;2023-04-24T05:39:19;30.48;;;18.77;;
75234;SDS011;63817;51.228;-1.472;2023-04-24T05:41:45;31.40;;;19.15;;
75234;SDS011;63817;51.228;-1.472;2023-04-24T05:44:10;38.63;;;18.05;;
75234;SDS011;63817;51.228;-1.472;2023-04-24T05:46:36;33.22;;;20.25;;
75234;SDS011;63817;51.228;-1.472;2023-04-24T05:49:01;33.72;;;19.67;;
75234;SDS011;63817;51.228;-1.472;2023-04-24T05:51:27;34.60;;;20.88;;
75234;SDS011;63817;51.228;-1.472;2023-04-24T05:53:53;34.70;;;21.70;;
75234;SDS011;63817;51.228;-1.472;2023-04-24T05:56:18;34.50;;;19.73;;
75234;SDS011;63817;51.228;-1.472;2023-04-24T05:58:45;38.83;;;20.33;;
75234;SDS011;63817;51.228;-1.472;2023-04-24T06:01:10;34.33;;;19.58;;
75234;SDS011;63817;51.228;-1.472;2023-04-24T06:03:36;31.48;;;17.98;;
75234;SDS011;63817;51.228;-1.472;2023-04-24T06:06:01;33.10;;;19.08;;
75234;SDS011;63817;51.228;-1.472;2023-04-24T06:08:26;35.42;;;19.13;;
75234;SDS011;63817;51.228;-1.472;2023-04-24T06:10:52;35.65;;;19.33;;
75234;SDS011;63817;51.228;-1.472;2023-04-24T06:13:17;34.22;;;19.15;;
75234;SDS011;63817;51.228;-1.472;2023-04-24T06:15:43;27.45;;;18.00;;
75234;SDS011;63817;51.228;-1.472;2023-04-24T06:18:08;28.10;;;16.73;;
75234;SDS011;63817;51.228;-1.472;2023-04-24T06:20:35;26.73;;;15.63;;
75234;SDS011;63817;51.228;-1.472;2023-04-24T06:23:00;36.28;;;15.13;;
75234;SDS011;63817;51.228;-1.472;2023-04-24T06:25:26;24.17;;;14.07;;
75234;SDS011;63817;51.228;-1.472;2023-04-24T06:27:53;26.02;;;14.48;;
75234;SDS011;63817;51.228;-1.472;2023-04-24T06:30:19;21.02;;;13.73;;
75234;SDS011;63817;51.228;-1.472;2023-04-24T06:32:45;25.40;;;14.25;;
75234;SDS011;63817;51.228;-1.472;2023-04-24T06:35:10;23.70;;;13.10;;
75234;SDS011;63817;51.228;-1.472;2023-04-24T06:37:37;21.52;;;12.95;;
75234;SDS011;63817;51.228;-1.472;2023-04-24T06:40:04;25.08;;;12.73;;
75234;SDS011;63817;51.228;-1.472;2023-04-24T06:42:30;21.05;;;13.32;;
75234;SDS011;63817;51.228;-1.472;2023-04-24T06:44:55;20.67;;;12.88;;
75234;SDS011;63817;51.228;-1.472;2023-04-24T06:47:21;19.50;;;11.85;;
75234;SDS011;63817;51.228;-1.472;2023-04-24T06:49:46;17.45;;;11.70;;
75234;SDS011;63817;51.228;-1.472;2023-04-24T06:52:12;25.67;;;12.30;;
75234;SDS011;63817;51.228;-1.472;2023-04-24T06:54:37;22.67;;;12.25;;
75234;SDS011;63817;51.228;-1.472;2023-04-24T06:57:02;19.20;;;11.52;;
75234;SDS011;63817;51.228;-1.472;2023-04-24T06:59:28;23.15;;;12.45;;
75234;SDS011;63817;51.228;-1.472;2023-04-24T07:01:55;16.33;;;10.70;;
75234;SDS011;63817;51.228;-1.472;2023-04-24T07:04:20;19.58;;;10.90;;
75234;SDS011;63817;51.228;-1.472;2023-04-24T07:06:46;19.83;;;11.98;;
75234;SDS011;63817;51.228;-1.472;2023-04-24T07:09:12;19.85;;;12.65;;
75234;SDS011;63817;51.228;-1.472;2023-04-24T07:11:39;15.00;;;10.73;;
75234;SDS011;63817;51.228;-1.472;2023-04-24T07:14:05;18.52;;;10.82;;
75234;SDS011;63817;51.228;-1.472;2023-04-24T07:16:31;20.55;;;10.45;;
75234;SDS011;63817;51.228;-1.472;2023-04-24T07:18:57;15.30;;;10.13;;
75234;SDS011;63817;51.228;-1.472;2023-04-24T07:21:22;15.70;;;10.38;;
75234;SDS011;63817;51.228;-1.472;2023-04-24T07:23:47;15.88;;;9.95;;
75234;SDS011;63817;51.228;-1.472;2023-04-24T07:26:13;15.93;;;9.30;;
75234;SDS011;63817;51.228;-1.472;2023-04-24T07:28:39;12.50;;;8.75;;
75234;SDS011;63817;51.228;-1.472;2023-04-24T07:31:05;15.95;;;8.70;;
75234;SDS011;63817;51.228;-1.472;2023-04-24T07:33:31;14.63;;;9.52;;
75234;SDS011;63817;51.228;-1.472;2023-04-24T07:35:56;19.70;;;9.27;;
75234;SDS011;63817;51.228;-1.472;2023-04-24T07:38:22;15.63;;;9.20;;
75234;SDS011;63817;51.228;-1.472;2023-04-24T07:40:48;13.02;;;8.60;;
75234;SDS011;63817;51.228;-1.472;2023-04-24T07:43:14;11.00;;;7.68;;
75234;SDS011;63817;51.228;-1.472;2023-04-24T07:45:39;17.58;;;8.05;;
75234;SDS011;63817;51.228;-1.472;2023-04-24T07:48:05;10.48;;;7.35;;
75234;SDS011;63817;51.228;-1.472;2023-04-24T07:50:31;9.60;;;6.65;;
75234;SDS011;63817;51.228;-1.472;2023-04-24T07:52:57;9.50;;;6.60;;
75234;SDS011;63817;51.228;-1.472;2023-04-24T07:55:22;9.63;;;6.63;;
75234;SDS011;63817;51.228;-1.472;2023-04-24T07:57:48;10.30;;;6.78;;
75234;SDS011;63817;51.228;-1.472;2023-04-24T08:00:13;28.33;;;7.57;;
75234;SDS011;63817;51.228;-1.472;2023-04-24T08:02:39;10.25;;;6.30;;
75234;SDS011;63817;51.228;-1.472;2023-04-24T08:05:05;13.88;;;7.43;;
75234;SDS011;63817;51.228;-1.472;2023-04-24T08:07:31;15.32;;;7.68;;
75234;SDS011;63817;51.228;-1.472;2023-04-24T08:09:57;13.35;;;6.68;;
75234;SDS011;63817;51.228;-1.472;2023-04-24T08:12:22;13.45;;;7.15;;
75234;SDS011;63817;51.228;-1.472;2023-04-24T08:14:48;13.05;;;7.45;;
75234;SDS011;63817;51.228;-1.472;2023-04-24T08:17:13;13.18;;;7.65;;
75234;SDS011;63817;51.228;-1.472;2023-04-24T08:19:39;13.35;;;7.43;;
75234;SDS011;63817;51.228;-1.472;2023-04-24T08:22:08;13.85;;;7.60;;
75234;SDS011;63817;51.228;-1.472;2023-04-24T08:24:33;14.00;;;7.10;;
75234;SDS011;63817;51.228;-1.472;2023-04-24T08:26:59;11.25;;;7.60;;
75234;SDS011;63817;51.228;-1.472;2023-04-24T08:29:26;14.27;;;7.63;;
75234;SDS011;63817;51.228;-1.472;2023-04-24T08:31:51;16.83;;;7.07;;
75234;SDS011;63817;51.228;-1.472;2023-04-24T08:34:19;10.48;;;6.60;;
75234;SDS011;63817;51.228;-1.472;2023-04-24T08:36:45;10.50;;;7.20;;
75234;SDS011;63817;51.228;-1.472;2023-04-24T08:39:10;14.60;;;8.38;;
75234;SDS011;63817;51.228;-1.472;2023-04-24T08:41:35;10.38;;;6.32;;
75234;SDS011;63817;51.228;-1.472;2023-04-24T08:44:02;13.50;;;7.10;;
75234;SDS011;63817;51.228;-1.472;2023-04-24T08:46:28;13.35;;;7.50;;
75234;SDS011;63817;51.228;-1.472;2023-04-24T08:48:55;13.57;;;7.65;;
75234;SDS011;63817;51.228;-1.472;2023-04-24T08:51:21;13.75;;;6.65;;
75234;SDS011;63817;51.228;-1.472;2023-04-24T08:53:47;11.38;;;6.65;;
75234;SDS011;63817;51.228;-1.472;2023-04-24T08:56:13;8.98;;;7.18;;
75234;SDS011;63817;51.228;-1.472;2023-04-24T08:58:39;8.80;;;6.82;;
75234;SDS011;63817;51.228;-1.472;2023-04-24T09:01:04;12.98;;;7.60;;
75234;SDS011;63817;51.228;-1.472;2023-04-24T09:03:30;13.73;;;7.50;;
75234;SDS011;63817;51.228;-1.472;2023-04-24T09:05:56;10.32;;;7.00;;
75234;SDS011;63817;51.228;-1.472;2023-04-24T09:08:24;8.45;;;7.07;;
75234;SDS011;63817;51.228;-1.472;2023-04-24T09:10:50;16.17;;;8.45;;
75234;SDS011;63817;51.228;-1.472;2023-04-24T09:13:16;12.82;;;7.20;;
75234;SDS011;63817;51.228;-1.472;2023-04-24T09:15:42;10.98;;;7.28;;
75234;SDS011;63817;51.228;-1.472;2023-04-24T09:18:07;12.65;;;7.45;;
75234;SDS011;63817;51.228;-1.472;2023-04-24T09:20:33;15.77;;;7.10;;
75234;SDS011;63817;51.228;-1.472;2023-04-24T09:23:01;11.73;;;7.38;;
75234;SDS011;63817;51.228;-1.472;2023-04-24T09:25:34;10.02;;;7.13;;
75234;SDS011;63817;51.228;-1.472;2023-04-24T09:28:04;13.05;;;8.18;;
75234;SDS011;63817;51.228;-1.472;2023-04-24T09:30:30;15.45;;;7.75;;
75234;SDS011;63817;51.228;-1.472;2023-04-24T09:33:15;13.30;;;7.97;;
75234;SDS011;63817;51.228;-1.472;2023-04-24T09:35:50;11.48;;;6.68;;
75234;SDS011;63817;51.228;-1.472;2023-04-24T09:38:17;10.68;;;6.90;;
75234;SDS011;63817;51.228;-1.472;2023-04-24T09:40:43;11.27;;;6.75;;
75234;SDS011;63817;51.228;-1.472;2023-04-24T09:43:11;11.32;;;7.32;;
75234;SDS011;63817;51.228;-1.472;2023-04-24T09:45:38;13.73;;;6.15;;
75234;SDS011;63817;51.228;-1.472;2023-04-24T09:48:04;11.52;;;7.53;;
75234;SDS011;63817;51.228;-1.472;2023-04-24T09:50:31;10.30;;;7.25;;
75234;SDS011;63817;51.228;-1.472;2023-04-24T09:52:58;14.52;;;6.93;;
75234;SDS011;63817;51.228;-1.472;2023-04-24T09:55:25;9.93;;;6.75;;
75234;SDS011;63817;51.228;-1.472;2023-04-24T09:57:52;12.25;;;6.40;;
75234;SDS011;63817;51.228;-1.472;2023-04-24T10:00:23;9.77;;;6.63;;
75234;SDS011;63817;51.228;-1.472;2023-04-24T10:02:50;11.27;;;6.82;;
75234;SDS011;63817;51.228;-1.472;2023-04-24T10:05:17;13.85;;;7.63;;
75234;SDS011;63817;51.228;-1.472;2023-04-24T10:07:43;16.17;;;7.57;;
75234;SDS011;63817;51.228;-1.472;2023-04-24T10:10:08;15.30;;;7.30;;
75234;SDS011;63817;51.228;-1.472;2023-04-24T10:12:34;11.05;;;7.30;;
75234;SDS011;63817;51.228;-1.472;2023-04-24T10:15:00;12.25;;;6.82;;
75234;SDS011;63817;51.228;-1.472;2023-04-24T10:17:26;11.80;;;6.78;;
75234;SDS011;63817;51.228;-1.472;2023-04-24T10:19:53;11.70;;;7.15;;
75234;SDS011;63817;51.228;-1.472;2023-04-24T10:22:19;8.80;;;5.93;;
75234;SDS011;63817;51.228;-1.472;2023-04-24T10:24:46;8.18;;;6.43;;
75234;SDS011;63817;51.228;-1.472;2023-04-24T10:27:12;9.25;;;5.10;;
75234;SDS011;63817;51.228;-1.472;2023-04-24T10:29:40;11.07;;;6.10;;
75234;SDS011;63817;51.228;-1.472;2023-04-24T10:32:06;13.55;;;6.35;;
75234;SDS011;63817;51.228;-1.472;2023-04-24T10:34:32;11.25;;;6.60;;
75234;SDS011;63817;51.228;-1.472;2023-04-24T10:36:57;11.90;;;7.05;;
75234;SDS011;63817;51.228;-1.472;2023-04-24T10:39:23;8.75;;;6.30;;
75234;SDS011;63817;51.228;-1.472;2023-04-24T10:41:49;13.02;;;6.88;;
75234;SDS011;63817;51.228;-1.472;2023-04-24T10:44:15;11.80;;;7.15;;
75234;SDS011;63817;51.228;-1.472;2023-04-24T10:46:44;8.77;;;6.30;;
75234;SDS011;63817;51.228;-1.472;2023-04-24T10:49:12;13.05;;;6.97;;
75234;SDS011;63817;51.228;-1.472;2023-04-24T10:54:29;11.02;;;7.38;;
75234;SDS011;63817;51.228;-1.472;2023-04-24T10:59:47;12.63;;;7.28;;
75234;SDS011;63817;51.228;-1.472;2023-04-24T11:02:14;15.00;;;9.15;;
75234;SDS011;63817;51.228;-1.472;2023-04-24T11:04:40;15.30;;;8.07;;
75234;SDS011;63817;51.228;-1.472;2023-04-24T11:07:08;13.05;;;6.90;;
75234;SDS011;63817;51.228;-1.472;2023-04-24T11:09:34;11.57;;;7.13;;
75234;SDS011;63817;51.228;-1.472;2023-04-24T11:12:08;11.90;;;7.07;;
75234;SDS011;63817;51.228;-1.472;2023-04-24T11:15:09;12.38;;;7.72;;
75234;SDS011;63817;51.228;-1.472;2023-04-24T11:20:08;13.35;;;6.82;;
75234;SDS011;63817;51.228;-1.472;2023-04-24T11:22:36;9.88;;;6.90;;
75234;SDS011;63817;51.228;-1.472;2023-04-24T11:25:04;10.68;;;6.88;;
75234;SDS011;63817;51.228;-1.472;2023-04-24T11:27:32;9.65;;;6.18;;
75234;SDS011;63817;51.228;-1.472;2023-04-24T11:30:04;13.90;;;6.93;;
75234;SDS011;63817;51.228;-1.472;2023-04-24T11:34:59;12.32;;;6.53;;
75234;SDS011;63817;51.228;-1.472;2023-04-24T11:37:33;13.38;;;7.18;;
75234;SDS011;63817;51.228;-1.472;2023-04-24T11:40:02;11.98;;;6.68;;
75234;SDS011;63817;51.228;-1.472;2023-04-24T11:42:33;12.43;;;6.60;;
75234;SDS011;63817;51.228;-1.472;2023-04-24T11:45:09;10.95;;;6.80;;
75234;SDS011;63817;51.228;-1.472;2023-04-24T11:47:36;9.63;;;6.32;;
75234;SDS011;63817;51.228;-1.472;2023-04-24T11:50:02;13.32;;;6.28;;
75234;SDS011;63817;51.228;-1.472;2023-04-24T11:52:31;13.02;;;6.95;;
75234;SDS011;63817;51.228;-1.472;2023-04-24T11:54:58;10.90;;;7.47;;
75234;SDS011;63817;51.228;-1.472;2023-04-24T11:57:25;11.10;;;7.97;;
75234;SDS011;63817;51.228;-1.472;2023-04-24T11:59:58;13.23;;;7.57;;
75234;SDS011;63817;51.228;-1.472;2023-04-24T12:02:25;15.02;;;7.55;;
75234;SDS011;63817;51.228;-1.472;2023-04-24T12:04:52;12.85;;;7.93;;
75234;SDS011;63817;51.228;-1.472;2023-04-24T12:07:18;13.52;;;8.82;;
75234;SDS011;63817;51.228;-1.472;2023-04-24T12:09:47;12.45;;;8.10;;
75234;SDS011;63817;51.228;-1.472;2023-04-24T12:12:16;12.98;;;7.78;;
75234;SDS011;63817;51.228;-1.472;2023-04-24T12:14:43;8.98;;;6.47;;
75234;SDS011;63817;51.228;-1.472;2023-04-24T12:19:48;5.93;;;4.63;;
75234;SDS011;63817;51.228;-1.472;2023-04-24T12:22:15;6.28;;;4.03;;
75234;SDS011;63817;51.228;-1.472;2023-04-24T12:27:30;4.00;;;3.40;;
75234;SDS011;63817;51.228;-1.472;2023-04-24T12:29:57;5.30;;;3.53;;
75234;SDS011;63817;51.228;-1.472;2023-04-24T12:32:24;5.88;;;3.70;;
75234;SDS011;63817;51.228;-1.472;2023-04-24T12:34:53;6.28;;;3.90;;
75234;SDS011;63817;51.228;-1.472;2023-04-24T12:37:19;6.85;;;3.67;;
75234;SDS011;63817;51.228;-1.472;2023-04-24T12:40:05;7.10;;;4.13;;
75234;SDS011;63817;51.228;-1.472;2023-04-24T12:42:32;7.10;;;4.57;;
75234;SDS011;63817;51.228;-1.472;2023-04-24T12:44:59;6.63;;;4.57;;
75234;SDS011;63817;51.228;-1.472;2023-04-24T12:47:26;8.80;;;5.45;;
75234;SDS011;63817;51.228;-1.472;2023-04-24T12:49:52;9.18;;;4.53;;
75234;SDS011;63817;51.228;-1.472;2023-04-24T12:52:18;10.15;;;5.43;;
75234;SDS011;63817;51.228;-1.472;2023-04-24T12:54:48;12.13;;;4.47;;
75234;SDS011;63817;51.228;-1.472;2023-04-24T12:57:14;10.52;;;4.93;;
75234;SDS011;63817;51.228;-1.472;2023-04-24T12:59:39;9.50;;;4.15;;
75234;SDS011;63817;51.228;-1.472;2023-04-24T13:02:05;7.30;;;3.92;;
75234;SDS011;63817;51.228;-1.472;2023-04-24T13:04:31;8.52;;;4.05;;
75234;SDS011;63817;51.228;-1.472;2023-04-24T13:06:57;6.22;;;3.65;;
75234;SDS011;63817;51.228;-1.472;2023-04-24T13:09:22;4.43;;;3.22;;
75234;SDS011;63817;51.228;-1.472;2023-04-24T13:11:48;7.72;;;3.15;;
75234;SDS011;63817;51.228;-1.472;2023-04-24T13:14:15;10.00;;;3.05;;
75234;SDS011;63817;51.228;-1.472;2023-04-24T13:16:40;4.82;;;3.00;;
75234;SDS011;63817;51.228;-1.472;2023-04-24T13:19:06;5.50;;;3.35;;
75234;SDS011;63817;51.228;-1.472;2023-04-24T13:21:31;4.50;;;3.67;;
75234;SDS011;63817;51.228;-1.472;2023-04-24T13:23:56;10.60;;;4.63;;
75234;SDS011;63817;51.228;-1.472;2023-04-24T13:26:22;6.57;;;3.88;;
75234;SDS011;63817;51.228;-1.472;2023-04-24T13:28:48;9.88;;;4.53;;
75234;SDS011;63817;51.228;-1.472;2023-04-24T13:31:13;9.20;;;4.68;;
75234;SDS011;63817;51.228;-1.472;2023-04-24T13:33:39;8.65;;;5.72;;
75234;SDS011;63817;51.228;-1.472;2023-04-24T13:36:05;7.90;;;5.10;;
75234;SDS011;63817;51.228;-1.472;2023-04-24T13:38:30;6.90;;;5.40;;
75234;SDS011;63817;51.228;-1.472;2023-04-24T13:40:56;10.80;;;6.40;;
75234;SDS011;63817;51.228;-1.472;2023-04-24T13:43:21;10.90;;;6.07;;
75234;SDS011;63817;51.228;-1.472;2023-04-24T13:45:47;11.25;;;6.30;;
75234;SDS011;63817;51.228;-1.472;2023-04-24T13:48:12;9.52;;;5.70;;
75234;SDS011;63817;51.228;-1.472;2023-04-24T13:50:40;7.00;;;4.03;;
75234;SDS011;63817;51.228;-1.472;2023-04-24T13:53:06;5.35;;;3.60;;
75234;SDS011;63817;51.228;-1.472;2023-04-24T13:55:32;7.07;;;3.13;;
75234;SDS011;63817;51.228;-1.472;2023-04-24T13:57:57;6.05;;;3.72;;
75234;SDS011;63817;51.228;-1.472;2023-04-24T14:00:23;6.57;;;3.05;;
75234;SDS011;63817;51.228;-1.472;2023-04-24T14:02:48;3.40;;;2.88;;
75234;SDS011;63817;51.228;-1.472;2023-04-24T14:05:14;5.13;;;3.25;;
75234;SDS011;63817;51.228;-1.472;2023-04-24T14:07:40;4.47;;;3.20;;
75234;SDS011;63817;51.228;-1.472;2023-04-24T14:10:06;7.10;;;3.15;;
75234;SDS011;63817;51.228;-1.472;2023-04-24T14:12:32;4.00;;;3.08;;
75234;SDS011;63817;51.228;-1.472;2023-04-24T14:14:57;3.97;;;2.95;;
75234;SDS011;63817;51.228;-1.472;2023-04-24T14:17:23;4.97;;;2.92;;
75234;SDS011;63817;51.228;-1.472;2023-04-24T14:19:48;8.70;;;3.55;;
75234;SDS011;63817;51.228;-1.472;2023-04-24T14:22:13;5.90;;;3.50;;
75234;SDS011;63817;51.228;-1.472;2023-04-24T14:24:39;6.55;;;3.22;;
75234;SDS011;63817;51.228;-1.472;2023-04-24T14:27:05;5.10;;;3.30;;